createdAt,value
2023-04-07T08:09:56.817Z,12.26
2023-04-07T08:12:28.244Z,12.20
2023-04-07T08:14:56.661Z,12.17
2023-04-07T08:17:23.712Z,12.15
2023-04-07T08:19:52.418Z,12.13
2023-04-07T08:22:21.469Z,12.10
2023-04-07T08:24:49.109Z,12.11
2023-04-07T08:27:16.808Z,12.12
2023-04-07T08:29:44.400Z,12.16
2023-04-07T08:32:11.574Z,12.27
2023-04-07T08:34:38.976Z,12.38
2023-04-07T08:37:09.756Z,12.40
2023-04-07T08:39:38.645Z,12.47
2023-04-07T08:42:05.697Z,12.64
2023-04-07T08:44:33.524Z,12.87
2023-04-07T08:47:02.026Z,13.14
2023-04-07T08:49:29.939Z,13.65
2023-04-07T08:51:57.075Z,14.18
2023-04-07T08:54:25.977Z,14.62
2023-04-07T08:56:53.800Z,14.97
2023-04-07T08:59:26.758Z,15.17
2023-04-07T09:01:55.099Z,15.24
2023-04-07T09:04:24.963Z,15.32
2023-04-07T09:06:52.721Z,15.37
2023-04-07T09:09:19.976Z,15.44
2023-04-07T09:11:50.460Z,15.44
2023-04-07T09:14:19.101Z,15.37
2023-04-07T09:16:47.448Z,15.38
2023-04-07T09:19:18.989Z,15.45
2023-04-07T09:21:53.391Z,15.49
2023-04-07T09:24:24.728Z,15.53
2023-04-07T09:27:02.047Z,15.52
2023-04-07T09:29:31.059Z,15.50
2023-04-07T09:31:58.388Z,15.59
2023-04-07T09:34:26.664Z,15.76
2023-04-07T09:36:54.932Z,15.90
2023-04-07T09:39:22.159Z,15.90
2023-04-07T09:41:49.215Z,15.91
2023-04-07T09:44:16.222Z,16.02
2023-04-07T09:46:53.310Z,16.15
2023-04-07T09:49:21.577Z,16.24
2023-04-07T09:52:11.327Z,16.16
2023-04-07T09:54:41.526Z,16.16
2023-04-07T09:57:09.663Z,16.15
2023-04-07T09:59:39.270Z,16.16
2023-04-07T10:02:07.652Z,16.17
2023-04-07T10:04:35.921Z,16.20
2023-04-07T10:07:04.093Z,16.30
2023-04-07T10:09:33.195Z,16.41
2023-04-07T10:12:00.450Z,16.51
2023-04-07T10:14:30.563Z,16.65
2023-04-07T10:17:00.391Z,16.76
2023-04-07T10:19:31.599Z,16.88
2023-04-07T10:21:58.697Z,16.95
2023-04-07T10:24:56.441Z,17.04
2023-04-07T10:27:52.260Z,17.19
2023-04-07T10:30:31.390Z,17.40
2023-04-07T10:33:19.044Z,17.62
2023-04-07T10:36:06.329Z,17.76
2023-04-07T10:38:33.874Z,17.92
2023-04-07T10:41:01.157Z,18.00
2023-04-07T10:51:06.408Z,18.23
2023-04-07T10:53:38.645Z,18.38
2023-04-07T10:56:06.051Z,18.53
2023-04-07T10:58:34.200Z,18.54
2023-04-07T11:01:01.600Z,18.50
2023-04-07T11:03:30.207Z,18.40
2023-04-07T11:06:14.157Z,18.25
2023-04-07T11:08:47.528Z,18.20
2023-04-07T11:11:38.948Z,18.33
2023-04-07T11:14:06.734Z,18.31
2023-04-07T11:16:38.318Z,18.02
2023-04-07T11:19:07.207Z,17.61
2023-04-07T11:21:34.495Z,17.28
2023-04-07T11:24:01.750Z,17.04
2023-04-07T11:26:30.515Z,16.81
2023-04-07T11:28:59.460Z,16.50
2023-04-07T11:31:29.217Z,16.08
2023-04-07T11:34:01.986Z,15.51
2023-04-07T11:36:35.328Z,14.89
2023-04-07T11:39:03.096Z,14.26
2023-04-07T11:41:33.052Z,13.67
2023-04-07T11:44:09.741Z,13.24
2023-04-07T11:46:38.977Z,13.01
2023-04-07T11:49:13.790Z,12.96
2023-04-07T11:52:21.194Z,12.98
2023-04-07T11:54:50.007Z,12.83
2023-04-07T11:57:28.158Z,12.68
2023-04-07T12:00:12.350Z,12.55
2023-04-07T12:06:49.089Z,12.61
2023-04-07T12:09:29.326Z,12.70
2023-04-07T12:11:57.190Z,12.86
2023-04-07T12:14:25.838Z,12.98
2023-04-07T12:16:53.062Z,13.10
2023-04-07T12:20:37.779Z,13.23
2023-04-07T12:23:06.413Z,13.41
2023-04-07T12:25:33.308Z,13.49
2023-04-07T12:28:01.872Z,13.55
2023-04-07T12:30:28.941Z,13.55
2023-04-07T12:32:56.092Z,13.40
2023-04-07T12:35:23.335Z,13.17
2023-04-07T12:37:51.518Z,12.95
2023-04-07T12:40:19.604Z,12.78
2023-04-07T12:42:47.687Z,12.66
2023-04-07T12:45:14.181Z,12.56
2023-04-07T12:47:44.744Z,12.52
2023-04-07T12:50:12.980Z,12.52
2023-04-07T12:52:43.506Z,12.43
2023-04-07T12:55:10.552Z,12.31
2023-04-07T12:57:37.518Z,12.28
2023-04-07T13:00:06.312Z,12.29
2023-04-07T13:02:36.323Z,12.34
2023-04-07T13:05:04.308Z,12.45
2023-04-07T13:07:31.320Z,12.59
2023-04-07T13:09:57.933Z,12.73
2023-04-07T13:12:25.520Z,12.88
2023-04-07T13:15:08.651Z,13.01
2023-04-07T13:17:36.375Z,13.11
2023-04-07T13:20:04.417Z,13.19
2023-04-07T13:22:32.158Z,13.28
2023-04-07T13:25:00.240Z,13.35
2023-04-07T13:27:29.201Z,13.43
2023-04-07T13:29:55.837Z,13.50
2023-04-07T13:32:48.809Z,13.54
2023-04-07T13:35:18.918Z,13.59
2023-04-07T13:37:45.655Z,13.61
2023-04-07T13:40:12.821Z,13.62
2023-04-07T13:42:39.870Z,13.64
2023-04-07T13:45:07.349Z,13.67
2023-04-07T13:47:34.778Z,13.70
2023-04-07T13:50:02.221Z,13.75
2023-04-07T13:52:29.656Z,13.80
2023-04-07T13:54:57.599Z,13.85
2023-04-07T13:57:24.332Z,13.88
2023-04-07T13:59:53.712Z,13.93
2023-04-07T14:02:21.098Z,13.99
2023-04-07T14:04:48.100Z,14.04
2023-04-07T14:07:14.930Z,14.10
2023-04-07T14:09:42.422Z,14.15
2023-04-07T14:12:09.382Z,14.17
2023-04-07T14:14:38.914Z,14.21
2023-04-07T14:17:05.699Z,14.24
2023-04-07T14:19:33.008Z,14.25
2023-04-07T14:21:59.770Z,14.26
2023-04-07T14:24:26.736Z,14.25
2023-04-07T14:26:54.628Z,14.23
2023-04-07T14:29:22.041Z,14.24
2023-04-07T14:31:49.097Z,14.24
2023-04-07T14:34:15.637Z,14.23
2023-04-07T14:36:53.111Z,14.22
2023-04-07T14:39:21.184Z,14.22
2023-04-07T14:41:47.828Z,14.23
2023-04-07T14:44:14.988Z,14.27
2023-04-07T14:46:42.332Z,14.33
2023-04-07T14:49:09.388Z,14.36
2023-04-07T14:51:36.017Z,14.40
2023-04-07T14:54:02.757Z,14.45
2023-04-07T14:56:29.505Z,14.47
2023-04-07T14:58:56.282Z,14.48
2023-04-07T15:01:22.970Z,14.47
2023-04-07T15:03:52.347Z,14.44
2023-04-07T15:06:19.329Z,14.43
2023-04-07T15:08:49.359Z,14.39
2023-04-07T15:11:16.015Z,14.35
2023-04-07T15:13:42.819Z,14.29
2023-04-07T15:16:13.504Z,14.26
2023-04-07T15:18:43.877Z,14.22
2023-04-07T15:21:10.720Z,14.18
2023-04-07T15:23:38.501Z,14.15
2023-04-07T15:26:05.698Z,14.13
2023-04-07T15:28:33.313Z,14.11
2023-04-07T15:31:00.791Z,14.11
2023-04-07T15:33:28.729Z,14.12
2023-04-07T15:35:55.681Z,14.14
2023-04-07T15:38:22.835Z,14.14
2023-04-07T15:40:50.919Z,14.14
2023-04-07T15:43:19.504Z,14.12
2023-04-07T15:45:46.941Z,14.09
2023-04-07T15:48:16.024Z,14.07
2023-04-07T15:50:43.065Z,14.06
2023-04-07T15:53:09.983Z,14.03
2023-04-07T15:55:36.813Z,13.99
2023-04-07T15:58:03.602Z,13.98
2023-04-07T16:00:32.618Z,13.95
2023-04-07T16:03:03.138Z,13.94
2023-04-07T16:05:30.272Z,13.93
2023-04-07T16:07:56.823Z,13.94
2023-04-07T16:10:23.389Z,13.91
2023-04-07T16:12:53.944Z,13.89
2023-04-07T16:15:36.468Z,13.89
2023-04-07T16:18:08.547Z,13.89
2023-04-07T16:20:35.500Z,13.86
2023-04-07T16:23:02.063Z,13.85
2023-04-07T16:25:29.479Z,13.83
2023-04-07T16:27:55.850Z,13.81
2023-04-07T16:30:24.644Z,13.78
2023-04-07T16:33:11.032Z,13.74
2023-04-07T16:35:37.830Z,13.70
2023-04-07T16:38:05.617Z,13.69
2023-04-07T16:40:33.403Z,13.67
2023-04-07T16:43:00.144Z,13.66
2023-04-07T16:45:26.688Z,13.69
2023-04-07T16:47:53.217Z,13.72
2023-04-07T16:50:22.415Z,13.79
2023-04-07T16:52:48.914Z,13.89
2023-04-07T16:55:15.489Z,14.01
2023-04-07T16:57:44.171Z,14.10
2023-04-07T17:00:11.409Z,14.19
2023-04-07T17:02:41.527Z,14.27
2023-04-07T17:05:09.135Z,14.30
2023-04-07T17:07:35.700Z,14.29
2023-04-07T17:10:06.774Z,14.28
2023-04-07T17:12:35.147Z,14.28
2023-04-07T17:15:08.950Z,14.27
2023-04-07T17:17:37.643Z,14.34
2023-04-07T17:28:03.096Z,14.52
2023-04-07T17:30:29.608Z,14.53
2023-04-07T17:32:56.302Z,14.53
2023-04-07T17:35:22.749Z,14.49
2023-04-07T17:37:50.444Z,14.43
2023-04-07T17:40:16.987Z,14.38
2023-04-07T17:42:44.431Z,14.34
2023-04-07T17:45:11.347Z,14.34
2023-04-07T17:47:38.314Z,14.32
2023-04-07T17:50:06.404Z,14.29
2023-04-07T17:52:33.046Z,14.23
2023-04-07T17:54:59.373Z,14.18
2023-04-07T17:57:25.984Z,14.11
2023-04-07T17:59:52.947Z,14.04
2023-04-07T18:02:19.621Z,13.99
2023-04-07T18:04:46.417Z,13.96
2023-04-07T18:07:13.288Z,13.93
2023-04-07T18:09:42.414Z,13.88
2023-04-07T18:12:08.912Z,13.84
2023-04-07T18:14:36.162Z,13.79
2023-04-07T18:17:02.460Z,13.73
2023-04-07T18:19:29.653Z,13.69
2023-04-07T18:21:56.082Z,13.64
2023-04-07T18:24:22.554Z,13.61
2023-04-07T18:26:49.644Z,13.56
2023-04-07T18:29:16.194Z,13.52
2023-04-07T18:31:43.322Z,13.46
2023-04-07T18:34:10.542Z,13.41
2023-04-07T18:36:42.770Z,13.37
2023-04-07T18:39:09.491Z,13.33
2023-04-07T18:41:36.075Z,13.31
2023-04-07T18:44:02.729Z,13.29
2023-04-07T18:46:29.747Z,13.28
2023-04-07T18:48:59.434Z,13.27
2023-04-07T18:51:26.061Z,13.26
2023-04-07T18:53:54.443Z,13.25
2023-04-07T18:56:21.801Z,13.24
2023-04-07T18:58:48.786Z,13.24
2023-04-07T19:01:18.186Z,13.23
2023-04-07T19:03:45.765Z,13.21
2023-04-07T19:06:15.930Z,13.19
2023-04-07T19:08:46.666Z,13.18
2023-04-07T19:11:14.323Z,13.14
2023-04-07T19:13:41.163Z,13.12
2023-04-07T19:16:07.761Z,13.06
2023-04-07T19:18:34.938Z,12.99
2023-04-07T19:21:01.891Z,12.89
2023-04-07T19:23:30.072Z,12.80
2023-04-07T19:25:56.416Z,12.73
2023-04-07T19:28:27.640Z,12.66
2023-04-07T19:30:54.758Z,12.60
2023-04-07T19:33:22.680Z,12.53
2023-04-07T19:35:49.998Z,12.48
2023-04-07T19:38:16.967Z,12.42
2023-04-07T19:40:43.722Z,12.35
2023-04-07T19:43:10.309Z,12.29
2023-04-07T19:45:36.934Z,12.23
2023-04-07T19:48:05.997Z,12.20
2023-04-07T19:50:33.116Z,12.17
2023-04-07T19:52:59.742Z,12.15
2023-04-07T19:55:26.907Z,12.13
2023-04-07T19:57:53.534Z,12.07
2023-04-07T20:00:20.890Z,12.01
2023-04-07T20:03:07.703Z,11.97
2023-04-07T20:05:34.446Z,11.95
2023-04-07T20:08:01.348Z,11.96
2023-04-07T20:10:27.832Z,11.95
2023-04-07T20:12:54.973Z,11.92
2023-04-07T20:15:23.915Z,11.87
2023-04-07T20:17:51.251Z,11.82
2023-04-07T20:20:23.176Z,11.80
2023-04-07T20:22:52.000Z,11.78
2023-04-07T20:29:14.749Z,11.80
2023-04-07T20:31:42.219Z,11.81
2023-04-07T20:34:09.309Z,11.83
2023-04-07T20:36:36.594Z,11.84
2023-04-07T20:39:04.325Z,11.86
2023-04-07T20:41:32.237Z,11.88
2023-04-07T20:43:59.916Z,11.92
2023-04-07T20:46:30.154Z,11.95
2023-04-07T20:48:57.854Z,11.98
2023-04-07T20:51:24.827Z,12.03
2023-04-07T20:53:52.614Z,12.09
2023-04-07T20:56:20.009Z,12.16
2023-04-07T20:58:54.204Z,12.21
2023-04-07T21:01:22.007Z,12.25
2023-04-07T21:03:49.792Z,12.29
2023-04-07T21:06:17.569Z,12.30
2023-04-07T21:08:46.634Z,12.30
2023-04-07T21:11:14.114Z,12.30
2023-04-07T21:13:41.504Z,12.30
2023-04-07T21:16:08.843Z,12.29
2023-04-07T21:18:36.778Z,12.27
2023-04-07T21:21:04.577Z,12.26
2023-04-07T21:23:32.876Z,12.23
2023-04-07T21:26:01.919Z,12.21
2023-04-07T21:28:35.732Z,12.18
2023-04-07T21:31:04.069Z,12.16
2023-04-07T21:33:31.367Z,12.12
2023-04-07T21:36:00.732Z,12.10
2023-04-07T21:38:27.937Z,12.08
2023-04-07T21:40:56.612Z,12.04
2023-04-07T21:43:24.768Z,12.03
2023-04-07T21:45:52.595Z,12.00
2023-04-07T21:48:23.721Z,11.99
2023-04-07T21:50:52.301Z,11.98
2023-04-07T22:00:39.068Z,11.94
2023-04-07T22:03:08.035Z,11.88
2023-04-07T22:05:38.671Z,11.85
2023-04-07T22:08:06.806Z,11.82
2023-04-07T22:10:34.123Z,11.79
2023-04-07T22:13:02.130Z,11.77
2023-04-07T22:15:31.086Z,11.74
2023-04-07T22:17:58.601Z,11.73
2023-04-07T22:20:28.031Z,11.71
2023-04-07T22:22:57.986Z,11.68
2023-04-07T22:25:25.599Z,11.63
2023-04-07T22:27:52.737Z,11.60
2023-04-07T22:30:20.711Z,11.56
2023-04-07T22:32:51.886Z,11.53
2023-04-07T22:35:19.177Z,11.47
2023-04-07T22:37:46.380Z,11.43
2023-04-07T22:40:13.573Z,11.40
2023-04-07T22:42:41.084Z,11.38
2023-04-07T22:45:10.025Z,11.35
2023-04-07T22:47:37.205Z,11.33
2023-04-07T22:50:04.766Z,11.30
2023-04-07T22:52:32.430Z,11.29
2023-04-07T22:54:59.544Z,11.28
2023-04-07T22:57:26.968Z,11.26
2023-04-07T22:59:54.399Z,11.22
2023-04-07T23:02:21.409Z,11.20
2023-04-07T23:04:49.696Z,11.19
2023-04-07T23:07:16.795Z,11.19
2023-04-07T23:09:50.463Z,11.19
2023-04-07T23:12:19.165Z,11.19
2023-04-07T23:14:46.659Z,11.19
2023-04-07T23:17:18.220Z,11.17
2023-04-07T23:19:45.518Z,11.18
2023-04-07T23:22:12.549Z,11.18
2023-04-07T23:24:41.714Z,11.17
2023-04-07T23:27:08.815Z,11.15
2023-04-07T23:29:41.319Z,11.15
2023-04-07T23:32:08.781Z,11.16
2023-04-07T23:34:35.800Z,11.17
2023-04-07T23:37:03.302Z,11.16
2023-04-07T23:39:31.344Z,11.17
2023-04-07T23:41:58.301Z,11.19
2023-04-07T23:44:25.393Z,11.20
2023-04-07T23:46:52.587Z,11.20
2023-04-07T23:49:19.713Z,11.18
2023-04-07T23:51:46.584Z,11.14
2023-04-07T23:54:25.218Z,11.12
2023-04-07T23:56:52.146Z,11.09
2023-04-07T23:59:19.058Z,11.05
